Time;durP1;ratioP1;P1;durP2;ratioP2;P2;SDS_P1;SDS_P2;PMS_P1;PMS_P2;Temp;Humidity;BMP_temperature;BMP_pressure;BME280_temperature;BME280_humidity;BME280_pressure;Samples;Min_cycle;Max_cycle;Signal;HPM_P1;HPM_P2
2021/12/05 00:21:18;;;;;;;21.40;7.68;;;;;;;;;;5073572;28;20057;-67
2021/12/05 00:23:58;;;;;;;22.63;7.55;;;;;;;;;;5072691;28;20553;-68
2021/12/05 00:26:25;;;;;;;24.77;9.10;;;;;;;;;;5071506;28;20051;-66
2021/12/05 00:29:07;;;;;;;19.75;7.38;;;;;;;;;;5071972;28;20048;-69
2021/12/05 00:31:58;;;;;;;27.00;8.48;;;;;;;;;;5069277;28;20084;-69
2021/12/05 00:40:26;;;;;;;16.88;7.22;;;;;;;;;;5072249;28;46627;-69
2021/12/05 00:46:14;;;;;;;19.65;7.40;;;;;;;;;;5056962;28;20051;-68
2021/12/05 00:49:19;;;;;;;23.73;6.88;;;;;;;;;;5072737;28;20112;-68
2021/12/05 00:57:10;;;;;;;21.50;6.47;;;;;;;;;;5072824;28;20504;-69
2021/12/05 00:59:43;;;;;;;15.25;6.43;;;;;;;;;;5068794;28;20405;-69
2021/12/05 01:02:20;;;;;;;24.48;5.95;;;;;;;;;;5072616;28;20055;-69
2021/12/05 01:12:45;;;;;;;22.77;5.90;;;;;;;;;;5073067;28;20136;-67
2021/12/05 01:15:13;;;;;;;15.77;6.57;;;;;;;;;;5072599;28;20048;-69
2021/12/05 01:17:53;;;;;;;20.55;5.60;;;;;;;;;;5073232;28;20053;-67
2021/12/05 01:20:21;;;;;;;21.05;5.47;;;;;;;;;;5072821;28;20049;-68
2021/12/05 01:23:12;;;;;;;18.05;6.35;;;;;;;;;;5073011;28;20212;-67
2021/12/05 01:25:53;;;;;;;15.32;5.05;;;;;;;;;;5052386;28;20103;-67
2021/12/05 01:31:11;;;;;;;19.13;5.40;;;;;;;;;;5071920;28;20060;-66
2021/12/05 01:33:52;;;;;;;15.13;4.35;;;;;;;;;;5072446;28;20045;-68
2021/12/05 01:55:35;;;;;;;14.77;5.13;;;;;;;;;;5061203;28;20052;-67
2021/12/05 01:58:21;;;;;;;15.00;4.60;;;;;;;;;;5067248;28;20048;-68
2021/12/05 02:01:11;;;;;;;14.13;5.60;;;;;;;;;;5071851;28;20055;-68
2021/12/05 02:31:19;;;;;;;11.48;4.05;;;;;;;;;;5071309;28;20141;-67
2021/12/05 02:34:02;;;;;;;14.38;5.10;;;;;;;;;;5071810;28;20049;-68
2021/12/05 02:41:43;;;;;;;18.70;4.37;;;;;;;;;;5071669;28;20096;-67
2021/12/05 02:44:20;;;;;;;14.20;4.55;;;;;;;;;;5067393;28;20059;-68
2021/12/05 02:46:50;;;;;;;16.80;4.25;;;;;;;;;;5070927;28;20646;-67
2021/12/05 02:49:18;;;;;;;12.43;4.72;;;;;;;;;;5070397;28;20144;-69
2021/12/05 02:51:52;;;;;;;19.08;4.03;;;;;;;;;;5071485;28;20053;-68
2021/12/05 02:54:19;;;;;;;22.63;5.13;;;;;;;;;;5071964;28;20041;-68
2021/12/05 02:56:49;;;;;;;20.67;4.75;;;;;;;;;;5072894;28;20049;-68
2021/12/05 02:59:41;;;;;;;21.38;4.90;;;;;;;;;;5074711;28;20132;-68
2021/12/05 03:02:13;;;;;;;17.52;4.53;;;;;;;;;;5072191;28;20049;-67
2021/12/05 03:04:42;;;;;;;13.35;3.90;;;;;;;;;;5074804;28;20060;-68
2021/12/05 03:07:10;;;;;;;10.88;4.15;;;;;;;;;;5073829;28;20049;-68
2021/12/05 03:09:40;;;;;;;12.32;4.47;;;;;;;;;;5073930;28;20142;-68
2021/12/05 03:12:09;;;;;;;17.20;4.38;;;;;;;;;;5075075;28;20214;-68
2021/12/05 03:14:36;;;;;;;10.45;4.20;;;;;;;;;;5074250;28;20053;-68
2021/12/05 03:17:03;;;;;;;17.15;5.40;;;;;;;;;;5074647;28;20055;-68
2021/12/05 03:19:29;;;;;;;10.43;3.05;;;;;;;;;;5074332;28;20049;-67
2021/12/05 03:21:56;;;;;;;11.30;3.88;;;;;;;;;;5075238;28;20081;-67
2021/12/05 03:24:23;;;;;;;10.05;4.53;;;;;;;;;;5074513;28;20052;-67
2021/12/05 03:26:52;;;;;;;20.45;4.70;;;;;;;;;;5064392;28;20071;-68
2021/12/05 03:29:20;;;;;;;13.80;3.80;;;;;;;;;;5072880;28;20542;-68
2021/12/05 03:31:47;;;;;;;13.95;3.95;;;;;;;;;;5074430;28;20059;-68
2021/12/05 03:34:16;;;;;;;9.18;3.47;;;;;;;;;;5074454;28;20072;-67
2021/12/05 03:36:44;;;;;;;16.13;3.90;;;;;;;;;;5073489;28;20497;-68
2021/12/05 03:39:11;;;;;;;13.02;3.67;;;;;;;;;;5074660;28;20147;-68
2021/12/05 03:41:38;;;;;;;18.45;3.35;;;;;;;;;;5074399;28;20080;-68
2021/12/05 03:44:05;;;;;;;20.17;4.28;;;;;;;;;;5077904;28;20056;-67
2021/12/05 03:46:32;;;;;;;17.33;3.40;;;;;;;;;;5072541;28;20079;-68
2021/12/05 03:49:03;;;;;;;15.40;3.45;;;;;;;;;;5074176;28;20141;-67
2021/12/05 03:51:32;;;;;;;17.58;4.13;;;;;;;;;;5073737;28;20420;-68
2021/12/05 03:53:58;;;;;;;13.35;3.63;;;;;;;;;;5077140;28;20077;-68
2021/12/05 03:56:24;;;;;;;15.57;4.15;;;;;;;;;;5073307;28;20140;-68
2021/12/05 03:58:51;;;;;;;17.17;3.38;;;;;;;;;;5074259;28;20059;-67
2021/12/05 04:01:18;;;;;;;12.02;3.35;;;;;;;;;;5074355;28;20523;-68
2021/12/05 04:03:46;;;;;;;9.20;3.63;;;;;;;;;;5078982;28;20057;-68
2021/12/05 04:06:14;;;;;;;13.32;3.83;;;;;;;;;;5073484;28;20511;-68
2021/12/05 04:08:40;;;;;;;14.25;4.20;;;;;;;;;;5073174;28;20132;-68
2021/12/05 04:11:18;;;;;;;12.90;4.00;;;;;;;;;;5073643;28;20053;-68
2021/12/05 04:13:45;;;;;;;12.25;4.25;;;;;;;;;;5074007;28;20767;-68
2021/12/05 04:16:13;;;;;;;13.90;4.07;;;;;;;;;;5083472;28;20977;-68
2021/12/05 04:18:40;;;;;;;14.65;4.32;;;;;;;;;;5074443;28;20056;-68
2021/12/05 04:21:06;;;;;;;15.20;4.00;;;;;;;;;;5073435;28;20136;-68
2021/12/05 04:23:33;;;;;;;14.45;3.80;;;;;;;;;;5074034;28;20083;-68
2021/12/05 04:26:00;;;;;;;13.73;4.25;;;;;;;;;;5073335;28;20754;-68
2021/12/05 04:28:27;;;;;;;13.38;3.78;;;;;;;;;;5073601;28;20041;-68
2021/12/05 04:30:54;;;;;;;14.93;5.03;;;;;;;;;;5073877;28;20525;-68
2021/12/05 04:33:21;;;;;;;9.63;4.25;;;;;;;;;;5073072;28;20048;-68
2021/12/05 04:35:47;;;;;;;12.43;3.97;;;;;;;;;;5073400;28;20847;-67
2021/12/05 04:38:14;;;;;;;11.30;3.90;;;;;;;;;;5073395;28;20088;-68
2021/12/05 04:40:41;;;;;;;11.95;4.18;;;;;;;;;;5073217;28;20188;-68
2021/12/05 04:43:07;;;;;;;8.98;4.22;;;;;;;;;;5073918;28;20056;-68
2021/12/05 04:45:35;;;;;;;11.45;3.70;;;;;;;;;;5074448;28;20147;-68
2021/12/05 04:48:03;;;;;;;14.52;4.00;;;;;;;;;;5072983;28;20562;-68
2021/12/05 04:50:30;;;;;;;10.45;3.70;;;;;;;;;;5073207;28;20143;-66
2021/12/05 04:52:56;;;;;;;14.02;4.63;;;;;;;;;;5053389;28;20196;-68
2021/12/05 04:55:23;;;;;;;11.30;4.15;;;;;;;;;;5072378;28;20049;-68
2021/12/05 04:57:54;;;;;;;10.32;4.50;;;;;;;;;;5073075;28;20059;-69
2021/12/05 05:00:25;;;;;;;14.35;4.50;;;;;;;;;;5072787;28;20377;-68
2021/12/05 05:02:52;;;;;;;17.30;4.80;;;;;;;;;;5073406;28;20063;-69
2021/12/05 05:05:19;;;;;;;13.43;3.85;;;;;;;;;;5072787;28;20057;-67
2021/12/05 05:07:46;;;;;;;6.82;3.45;;;;;;;;;;5072707;28;20059;-68
2021/12/05 05:10:14;;;;;;;11.40;4.32;;;;;;;;;;5072719;28;20049;-69
2021/12/05 05:12:41;;;;;;;10.52;4.15;;;;;;;;;;5079815;28;20057;-68
2021/12/05 05:15:10;;;;;;;13.70;4.57;;;;;;;;;;5070888;28;20106;-68
2021/12/05 05:17:38;;;;;;;17.38;4.93;;;;;;;;;;5071268;28;20061;-68
2021/12/05 05:20:15;;;;;;;12.30;4.60;;;;;;;;;;5071541;28;20141;-68
2021/12/05 05:22:51;;;;;;;14.23;4.63;;;;;;;;;;5073325;28;20145;-68
2021/12/05 05:26:24;;;;;;;17.40;5.10;;;;;;;;;;5072971;28;20068;-68
2021/12/05 05:47:15;;;;;;;11.73;4.63;;;;;;;;;;5071918;28;20876;-67
2021/12/05 05:52:11;;;;;;;14.23;5.55;;;;;;;;;;5072782;28;20172;-68
2021/12/05 05:54:38;;;;;;;18.55;5.68;;;;;;;;;;5071875;28;20053;-68
2021/12/05 05:57:17;;;;;;;14.18;5.82;;;;;;;;;;5071412;28;20600;-68
2021/12/05 05:59:58;;;;;;;16.67;5.53;;;;;;;;;;5063778;28;20055;-67
2021/12/05 06:05:10;;;;;;;10.87;5.50;;;;;;;;;;5071706;28;20906;-68
2021/12/05 06:07:42;;;;;;;11.60;4.95;;;;;;;;;;5071893;28;20283;-68
2021/12/05 06:10:10;;;;;;;12.55;6.78;;;;;;;;;;5071516;28;20148;-68
2021/12/05 06:12:37;;;;;;;14.63;5.85;;;;;;;;;;5072309;28;20055;-68
2021/12/05 06:15:08;;;;;;;11.80;5.75;;;;;;;;;;5072369;28;20057;-68
2021/12/05 06:17:36;;;;;;;16.08;6.18;;;;;;;;;;5071643;28;20055;-68
2021/12/05 06:20:06;;;;;;;11.75;6.60;;;;;;;;;;5071458;28;20493;-68
2021/12/05 06:22:32;;;;;;;17.05;6.70;;;;;;;;;;5071599;28;20057;-67
2021/12/05 06:24:59;;;;;;;15.85;6.32;;;;;;;;;;5071617;28;20053;-68
2021/12/05 06:27:26;;;;;;;17.58;7.18;;;;;;;;;;5071563;28;20509;-68
2021/12/05 06:30:01;;;;;;;13.75;6.32;;;;;;;;;;5071131;28;20049;-68
2021/12/05 06:36:47;;;;;;;13.35;6.50;;;;;;;;;;5074548;28;20063;-68
2021/12/05 06:38:10;;;;;;;12.37;7.00;;;;;;;;;;5074887;28;20114;-68
2021/12/05 06:41:05;;;;;;;17.60;6.57;;;;;;;;;;5075433;28;20638;-67
2021/12/05 06:48:38;;;;;;;12.60;6.85;;;;;;;;;;5075148;28;20056;-68
2021/12/05 06:51:05;;;;;;;12.57;7.03;;;;;;;;;;5074959;28;20127;-67
2021/12/05 06:53:32;;;;;;;11.00;6.63;;;;;;;;;;5075051;28;20136;-68
2021/12/05 06:55:58;;;;;;;14.25;6.72;;;;;;;;;;5074957;28;20057;-70
2021/12/05 06:58:24;;;;;;;15.93;6.75;;;;;;;;;;5075324;28;20084;-66
2021/12/05 07:00:51;;;;;;;11.95;6.25;;;;;;;;;;5072618;28;20505;-67
2021/12/05 07:03:18;;;;;;;12.15;6.53;;;;;;;;;;5075212;28;20138;-68
2021/12/05 07:05:55;;;;;;;11.63;6.57;;;;;;;;;;5074217;28;20057;-67
2021/12/05 07:08:24;;;;;;;11.20;6.53;;;;;;;;;;5081075;28;20049;-67
2021/12/05 07:14:12;;;;;;;11.90;7.20;;;;;;;;;;5077732;28;20057;-68
2021/12/05 07:21:42;;;;;;;10.82;6.35;;;;;;;;;;5075118;28;20156;-67
2021/12/05 07:24:46;;;;;;;12.07;7.45;;;;;;;;;;5070948;28;20045;-68
2021/12/05 07:40:18;;;;;;;12.75;7.53;;;;;;;;;;5062228;28;20045;-68
2021/12/05 07:40:48;;;;;;;12.90;7.70;;;;;;;;;;5073983;28;20570;-68
2021/12/05 07:43:16;;;;;;;11.38;8.10;;;;;;;;;;5071570;28;20045;-67
2021/12/05 07:45:49;;;;;;;15.23;8.15;;;;;;;;;;5072675;28;20049;-68
2021/12/05 07:48:20;;;;;;;12.88;8.10;;;;;;;;;;5071548;28;20060;-67
2021/12/05 07:51:05;;;;;;;16.25;8.45;;;;;;;;;;5074366;28;20055;-68
2021/12/05 07:53:47;;;;;;;16.23;7.85;;;;;;;;;;5066767;28;20081;-68
2021/12/05 07:56:19;;;;;;;15.20;7.68;;;;;;;;;;5058711;28;20049;-68
2021/12/05 07:58:58;;;;;;;13.15;7.25;;;;;;;;;;5074401;28;20144;-68
2021/12/05 08:15:19;;;;;;;13.43;7.47;;;;;;;;;;5056511;28;20087;-67
2021/12/05 08:17:53;;;;;;;13.23;8.60;;;;;;;;;;5073937;28;20137;-68
2021/12/05 08:20:27;;;;;;;10.85;6.78;;;;;;;;;;5073578;28;20053;-68
2021/12/05 08:22:53;;;;;;;14.38;8.52;;;;;;;;;;5074105;28;20083;-68
2021/12/05 08:25:23;;;;;;;13.65;8.75;;;;;;;;;;5073696;28;20136;-67
2021/12/05 08:27:53;;;;;;;14.20;8.93;;;;;;;;;;5073485;28;20444;-68
2021/12/05 08:30:29;;;;;;;10.48;7.93;;;;;;;;;;5072656;28;20049;-68
2021/12/05 08:33:17;;;;;;;12.80;8.48;;;;;;;;;;5056910;28;20074;-68
2021/12/05 09:08:36;;;;;;;13.73;8.45;;;;;;;;;;5071755;28;20135;-69
2021/12/05 09:19:26;;;;;;;12.97;8.43;;;;;;;;;;5072289;28;20132;-68
2021/12/05 09:30:30;;;;;;;11.95;7.78;;;;;;;;;;5073205;28;20152;-68
2021/12/05 10:11:46;;;;;;;11.52;8.35;;;;;;;;;;5059456;28;20080;-68
2021/12/05 10:17:09;;;;;;;12.55;8.40;;;;;;;;;;5071599;28;20049;-68
2021/12/05 10:20:10;;;;;;;13.82;8.93;;;;;;;;;;5069802;28;20057;-68
2021/12/05 10:36:19;;;;;;;15.57;9.40;;;;;;;;;;5070448;28;20053;-69
2021/12/05 10:38:50;;;;;;;16.77;10.75;;;;;;;;;;5070609;28;20547;-68
2021/12/05 10:43:51;;;;;;;15.85;9.35;;;;;;;;;;5069747;28;20081;-68
2021/12/05 10:46:19;;;;;;;16.85;10.02;;;;;;;;;;5068792;28;20059;-69
2021/12/05 10:49:06;;;;;;;18.38;10.95;;;;;;;;;;5072191;28;20045;-68
2021/12/05 10:51:37;;;;;;;14.70;9.77;;;;;;;;;;5071801;28;20056;-68
2021/12/05 10:54:08;;;;;;;15.82;9.68;;;;;;;;;;5071881;28;20055;-68
2021/12/05 10:56:35;;;;;;;17.40;10.50;;;;;;;;;;5071677;28;20141;-68
2021/12/05 10:59:03;;;;;;;13.20;9.43;;;;;;;;;;5066899;28;20058;-68
2021/12/05 11:01:51;;;;;;;13.70;9.52;;;;;;;;;;5061441;28;20060;-67
2021/12/05 11:04:31;;;;;;;13.65;9.95;;;;;;;;;;5067615;28;20053;-68
2021/12/05 11:07:03;;;;;;;16.83;11.32;;;;;;;;;;5070509;28;20045;-68
2021/12/05 11:09:30;;;;;;;18.48;10.60;;;;;;;;;;5070356;28;20152;-68
2021/12/05 11:12:01;;;;;;;15.63;10.60;;;;;;;;;;5071288;28;20136;-69
2021/12/05 11:14:32;;;;;;;14.93;10.63;;;;;;;;;;5069550;28;20057;-68
2021/12/05 11:16:58;;;;;;;17.23;11.88;;;;;;;;;;5070876;28;20539;-69
2021/12/05 11:19:29;;;;;;;13.77;10.15;;;;;;;;;;5074320;28;20059;-67
2021/12/05 11:22:16;;;;;;;20.60;12.45;;;;;;;;;;5073788;28;20055;-67
2021/12/05 11:24:44;;;;;;;18.77;11.25;;;;;;;;;;5071982;28;20140;-68
2021/12/05 11:27:16;;;;;;;17.27;11.18;;;;;;;;;;5073442;28;20496;-67
2021/12/05 11:29:45;;;;;;;17.67;12.02;;;;;;;;;;5074497;28;20176;-68
2021/12/05 11:32:19;;;;;;;16.70;11.48;;;;;;;;;;5073339;28;20071;-68
2021/12/05 11:34:46;;;;;;;17.63;10.93;;;;;;;;;;5073821;28;20128;-69
2021/12/05 11:37:12;;;;;;;16.27;11.48;;;;;;;;;;5067742;28;20049;-68
2021/12/05 11:39:39;;;;;;;18.08;11.82;;;;;;;;;;5073580;28;20089;-68
2021/12/05 11:42:12;;;;;;;19.42;13.27;;;;;;;;;;5074021;28;20592;-68
2021/12/05 11:44:40;;;;;;;16.98;11.35;;;;;;;;;;5073869;28;20056;-68
2021/12/05 11:47:15;;;;;;;16.60;11.20;;;;;;;;;;5073206;28;20052;-68
2021/12/05 11:49:41;;;;;;;16.27;10.68;;;;;;;;;;5073323;28;20080;-68
2021/12/05 11:52:08;;;;;;;15.70;11.07;;;;;;;;;;5071252;28;21628;-68
2021/12/05 11:54:40;;;;;;;16.55;11.15;;;;;;;;;;5070955;28;20577;-67
2021/12/05 11:57:17;;;;;;;18.77;12.50;;;;;;;;;;5069676;28;20053;-67
2021/12/05 11:59:48;;;;;;;17.67;10.90;;;;;;;;;;5071586;28;20135;-69
2021/12/05 12:02:15;;;;;;;13.43;9.68;;;;;;;;;;5073953;28;20256;-69
2021/12/05 12:04:47;;;;;;;19.35;11.18;;;;;;;;;;5069143;28;20053;-68
2021/12/05 12:07:37;;;;;;;15.55;10.70;;;;;;;;;;5062766;28;20106;-68
2021/12/05 12:10:10;;;;;;;15.38;10.15;;;;;;;;;;5071913;28;20242;-69
2021/12/05 12:12:37;;;;;;;17.30;11.07;;;;;;;;;;5072637;28;20044;-69
2021/12/05 12:15:05;;;;;;;16.65;11.27;;;;;;;;;;5073469;28;20226;-68
2021/12/05 12:17:31;;;;;;;17.55;11.05;;;;;;;;;;5069316;28;20049;-69
2021/12/05 12:19:58;;;;;;;17.42;10.98;;;;;;;;;;5079849;28;20095;-69
2021/12/05 12:22:26;;;;;;;16.60;10.65;;;;;;;;;;5073704;28;20499;-68
2021/12/05 12:24:55;;;;;;;15.05;10.73;;;;;;;;;;5065895;28;20049;-68
2021/12/05 12:27:22;;;;;;;15.68;10.90;;;;;;;;;;5072867;28;20053;-68
2021/12/05 12:29:49;;;;;;;14.82;10.45;;;;;;;;;;5069412;28;20049;-68
2021/12/05 12:32:19;;;;;;;15.68;10.25;;;;;;;;;;5072586;28;20053;-68
2021/12/05 12:34:46;;;;;;;16.17;10.55;;;;;;;;;;5073390;28;20140;-68
2021/12/05 12:37:12;;;;;;;16.27;10.73;;;;;;;;;;5073142;28;20505;-67
2021/12/05 12:39:41;;;;;;;16.23;10.95;;;;;;;;;;5072924;28;20053;-69
2021/12/05 12:42:13;;;;;;;15.27;10.45;;;;;;;;;;5082349;28;20057;-66
2021/12/05 12:44:58;;;;;;;16.60;10.55;;;;;;;;;;5073469;28;20988;-69
2021/12/05 12:47:30;;;;;;;14.63;9.98;;;;;;;;;;5073417;28;20048;-67
2021/12/05 12:50:16;;;;;;;13.48;9.55;;;;;;;;;;5085666;28;20469;-69
2021/12/05 12:52:55;;;;;;;15.32;10.85;;;;;;;;;;5086565;28;20076;-69
2021/12/05 12:55:27;;;;;;;13.05;9.15;;;;;;;;;;5064246;28;20055;-69
2021/12/05 12:57:53;;;;;;;16.13;10.27;;;;;;;;;;5071688;28;20079;-69
2021/12/05 13:00:22;;;;;;;16.42;10.93;;;;;;;;;;5074256;28;20053;-69
2021/12/05 13:05:41;;;;;;;13.48;9.57;;;;;;;;;;5080605;28;20103;-69
2021/12/05 13:11:14;;;;;;;14.77;9.77;;;;;;;;;;5086304;28;20468;-69
2021/12/05 13:13:44;;;;;;;13.77;9.10;;;;;;;;;;5080632;28;20088;-68
2021/12/05 13:16:13;;;;;;;17.10;10.05;;;;;;;;;;5071361;28;20132;-68
2021/12/05 13:18:42;;;;;;;14.10;9.55;;;;;;;;;;5083757;28;20468;-68
2021/12/05 13:21:10;;;;;;;15.30;9.65;;;;;;;;;;5077259;28;20060;-67
2021/12/05 13:23:38;;;;;;;16.52;10.27;;;;;;;;;;5073919;28;20144;-67
2021/12/05 13:26:13;;;;;;;14.18;9.73;;;;;;;;;;5082844;28;20053;-67
2021/12/05 13:28:44;;;;;;;14.73;9.13;;;;;;;;;;5078883;28;20052;-67
2021/12/05 13:31:30;;;;;;;15.60;10.05;;;;;;;;;;5078967;28;20070;-67
2021/12/05 13:34:18;;;;;;;13.57;9.60;;;;;;;;;;5072220;28;20052;-68
2021/12/05 13:36:46;;;;;;;13.02;9.07;;;;;;;;;;5076039;28;20052;-67
2021/12/05 13:39:29;;;;;;;18.85;10.15;;;;;;;;;;5084644;28;20147;-68
2021/12/05 13:42:02;;;;;;;13.38;9.95;;;;;;;;;;5072386;28;20113;-67
2021/12/05 13:44:52;;;;;;;15.80;9.65;;;;;;;;;;5072948;28;20076;-67
2021/12/05 13:47:19;;;;;;;14.15;9.52;;;;;;;;;;5066109;28;20056;-68
2021/12/05 13:49:47;;;;;;;15.27;9.40;;;;;;;;;;5066773;28;20570;-67
2021/12/05 13:52:40;;;;;;;13.90;9.48;;;;;;;;;;5082759;28;20105;-67
2021/12/05 13:55:25;;;;;;;15.20;10.13;;;;;;;;;;5061464;28;20547;-67
2021/12/05 13:58:11;;;;;;;14.70;9.75;;;;;;;;;;5080466;28;20061;-67
2021/12/05 14:00:42;;;;;;;14.55;9.77;;;;;;;;;;5073592;28;20504;-68
2021/12/05 14:03:08;;;;;;;14.57;9.40;;;;;;;;;;5075139;28;20103;-69
2021/12/05 14:05:35;;;;;;;12.38;9.18;;;;;;;;;;5076030;28;20056;-69
2021/12/05 14:08:02;;;;;;;12.23;8.77;;;;;;;;;;5072036;28;20587;-68
2021/12/05 14:10:41;;;;;;;13.93;9.43;;;;;;;;;;5071848;28;20623;-69
2021/12/05 14:13:07;;;;;;;15.02;10.07;;;;;;;;;;5071523;28;20056;-70
2021/12/05 14:15:34;;;;;;;14.02;9.02;;;;;;;;;;5071093;28;20052;-70
2021/12/05 14:18:00;;;;;;;13.10;8.85;;;;;;;;;;5071500;28;20072;-70
2021/12/05 14:20:27;;;;;;;12.20;8.95;;;;;;;;;;5077389;28;20044;-70
2021/12/05 14:22:56;;;;;;;12.25;9.02;;;;;;;;;;5075397;28;20064;-69
2021/12/05 14:25:24;;;;;;;15.63;9.48;;;;;;;;;;5070761;28;20144;-68
2021/12/05 14:27:52;;;;;;;13.13;9.73;;;;;;;;;;5081084;28;20510;-70
2021/12/05 14:30:20;;;;;;;12.18;9.45;;;;;;;;;;5078931;28;20576;-68
2021/12/05 14:32:47;;;;;;;14.05;9.88;;;;;;;;;;5072317;28;20048;-69
2021/12/05 14:35:18;;;;;;;13.10;9.90;;;;;;;;;;5070327;28;20135;-68
2021/12/05 14:37:46;;;;;;;13.90;10.48;;;;;;;;;;5076125;28;20056;-68
2021/12/05 14:40:17;;;;;;;17.25;10.75;;;;;;;;;;5072559;28;20144;-67
2021/12/05 14:42:45;;;;;;;16.58;10.38;;;;;;;;;;5072960;28;20095;-67
2021/12/05 14:45:14;;;;;;;20.98;11.57;;;;;;;;;;5068203;28;20195;-67
2021/12/05 14:47:41;;;;;;;20.65;11.23;;;;;;;;;;5058002;28;20446;-67
2021/12/05 14:50:10;;;;;;;15.60;10.00;;;;;;;;;;5069950;28;21021;-67
2021/12/05 14:52:37;;;;;;;10.82;8.95;;;;;;;;;;5079352;28;20135;-68
2021/12/05 14:55:05;;;;;;;11.98;9.40;;;;;;;;;;5090583;28;20630;-67
2021/12/05 14:57:33;;;;;;;13.85;8.75;;;;;;;;;;5089272;28;20083;-67
2021/12/05 15:00:11;;;;;;;17.40;9.45;;;;;;;;;;5081751;28;20056;-67
2021/12/05 15:02:39;;;;;;;15.10;9.55;;;;;;;;;;5068495;28;20132;-68
2021/12/05 15:05:13;;;;;;;11.02;8.63;;;;;;;;;;5077227;28;20107;-67
2021/12/05 15:07:39;;;;;;;13.93;9.52;;;;;;;;;;5074587;28;20191;-67
2021/12/05 15:10:08;;;;;;;13.35;9.40;;;;;;;;;;5079918;28;20044;-66
2021/12/05 15:12:35;;;;;;;12.43;8.70;;;;;;;;;;5072734;28;20471;-68
2021/12/05 15:15:04;;;;;;;11.48;9.43;;;;;;;;;;5075436;28;20045;-68
2021/12/05 15:17:32;;;;;;;12.60;9.07;;;;;;;;;;5074004;28;20049;-67
2021/12/05 15:20:01;;;;;;;12.35;9.32;;;;;;;;;;5074214;28;20055;-67
2021/12/05 15:22:38;;;;;;;10.68;8.45;;;;;;;;;;5073631;28;20484;-67
2021/12/05 15:25:07;;;;;;;12.07;9.18;;;;;;;;;;5074204;28;20486;-66
2021/12/05 15:27:34;;;;;;;13.15;9.85;;;;;;;;;;5071341;28;20131;-66
2021/12/05 15:30:07;;;;;;;11.32;8.90;;;;;;;;;;5082012;28;20057;-66
2021/12/05 15:32:34;;;;;;;12.98;9.65;;;;;;;;;;5066440;28;20442;-65
2021/12/05 15:35:05;;;;;;;11.25;9.25;;;;;;;;;;5070939;28;20060;-68
2021/12/05 15:37:31;;;;;;;14.50;10.45;;;;;;;;;;5070543;28;20052;-66
2021/12/05 15:39:58;;;;;;;14.43;9.88;;;;;;;;;;5072187;28;20207;-66
2021/12/05 15:42:25;;;;;;;17.50;10.30;;;;;;;;;;5073207;28;20236;-66
2021/12/05 15:44:53;;;;;;;12.75;9.55;;;;;;;;;;5080572;28;20147;-66
2021/12/05 15:47:28;;;;;;;14.52;9.77;;;;;;;;;;5076814;28;20048;-66
2021/12/05 15:49:59;;;;;;;13.85;11.27;;;;;;;;;;5063443;28;20103;-67
2021/12/05 15:52:45;;;;;;;15.60;11.13;;;;;;;;;;5074982;28;20598;-65
2021/12/05 15:55:12;;;;;;;16.80;11.88;;;;;;;;;;5073199;28;20049;-65
2021/12/05 15:57:39;;;;;;;16.60;11.73;;;;;;;;;;5077289;28;20087;-67
2021/12/05 16:00:11;;;;;;;16.77;11.48;;;;;;;;;;5072078;28;20148;-67
2021/12/05 16:02:41;;;;;;;18.20;11.88;;;;;;;;;;5060139;28;20053;-67
2021/12/05 16:05:15;;;;;;;18.55;11.15;;;;;;;;;;5073384;28;20347;-67
2021/12/05 16:07:44;;;;;;;19.20;11.77;;;;;;;;;;5074777;28;20049;-67
2021/12/05 16:10:13;;;;;;;18.13;11.70;;;;;;;;;;5086642;28;20151;-68
2021/12/05 16:12:40;;;;;;;16.30;11.27;;;;;;;;;;5069470;28;20061;-66
2021/12/05 16:15:07;;;;;;;13.77;10.77;;;;;;;;;;5072441;28;20148;-67
2021/12/05 16:17:34;;;;;;;15.10;10.82;;;;;;;;;;5075831;28;20077;-66
2021/12/05 16:20:00;;;;;;;15.35;11.27;;;;;;;;;;5090285;28;20595;-66
2021/12/05 16:22:29;;;;;;;17.08;11.90;;;;;;;;;;5070682;28;20057;-66
2021/12/05 16:24:55;;;;;;;18.45;11.98;;;;;;;;;;5074027;28;20183;-67
2021/12/05 16:27:22;;;;;;;15.90;11.60;;;;;;;;;;5077351;28;20136;-66
2021/12/05 16:29:48;;;;;;;20.80;12.57;;;;;;;;;;5092494;28;20132;-66
2021/12/05 16:32:15;;;;;;;15.63;11.55;;;;;;;;;;5076359;28;20052;-67
2021/12/05 16:34:46;;;;;;;15.82;11.57;;;;;;;;;;5079304;28;20507;-67
2021/12/05 16:37:14;;;;;;;16.10;11.38;;;;;;;;;;5073891;28;20056;-66
2021/12/05 16:39:44;;;;;;;16.70;11.30;;;;;;;;;;5081201;28;21504;-66
2021/12/05 16:42:13;;;;;;;17.55;11.98;;;;;;;;;;5077865;28;20587;-67
2021/12/05 16:44:47;;;;;;;18.73;13.25;;;;;;;;;;5077263;28;20084;-66
2021/12/05 16:47:17;;;;;;;19.13;13.23;;;;;;;;;;5083413;28;20139;-66
2021/12/05 16:49:49;;;;;;;20.10;13.55;;;;;;;;;;5081459;28;20049;-65
2021/12/05 16:52:15;;;;;;;23.83;13.45;;;;;;;;;;5077065;28;20167;-67
2021/12/05 16:54:46;;;;;;;18.80;11.60;;;;;;;;;;5090232;28;20126;-66
2021/12/05 16:57:14;;;;;;;18.13;11.07;;;;;;;;;;5080186;28;20048;-66
2021/12/05 16:59:45;;;;;;;14.93;12.02;;;;;;;;;;5060457;28;20567;-66
2021/12/05 17:02:15;;;;;;;16.25;12.35;;;;;;;;;;5083855;28;20607;-66
2021/12/05 17:04:45;;;;;;;15.88;10.90;;;;;;;;;;5074391;28;20139;-67
2021/12/05 17:07:14;;;;;;;17.50;12.40;;;;;;;;;;5080336;28;20045;-66
2021/12/05 17:09:42;;;;;;;16.45;12.35;;;;;;;;;;5086195;28;20110;-67
2021/12/05 17:12:27;;;;;;;17.48;12.05;;;;;;;;;;5074971;28;20059;-66
2021/12/05 17:15:11;;;;;;;17.35;12.45;;;;;;;;;;5075478;28;20695;-66
2021/12/05 17:17:39;;;;;;;20.65;13.55;;;;;;;;;;5083459;28;20088;-66
2021/12/05 17:20:17;;;;;;;18.60;13.02;;;;;;;;;;5072081;28;20049;-66
2021/12/05 17:22:50;;;;;;;18.98;13.07;;;;;;;;;;5072956;28;20096;-67
2021/12/05 17:25:31;;;;;;;18.75;12.68;;;;;;;;;;5080852;28;20063;-67
2021/12/05 17:27:59;;;;;;;19.35;12.85;;;;;;;;;;5077966;28;20061;-67
2021/12/05 17:30:25;;;;;;;16.70;11.73;;;;;;;;;;5082598;28;20155;-67
2021/12/05 17:32:52;;;;;;;17.58;11.65;;;;;;;;;;5072407;28;20063;-67
2021/12/05 17:35:18;;;;;;;14.45;10.63;;;;;;;;;;5077316;28;20413;-67
2021/12/05 17:37:46;;;;;;;14.15;10.48;;;;;;;;;;5072588;28;20044;-68
2021/12/05 17:40:29;;;;;;;17.38;11.20;;;;;;;;;;5072118;28;20053;-67
2021/12/05 17:42:55;;;;;;;15.82;10.82;;;;;;;;;;5073252;28;20051;-66
2021/12/05 17:45:22;;;;;;;17.85;11.40;;;;;;;;;;5072439;28;20432;-65
2021/12/05 17:47:49;;;;;;;15.10;11.18;;;;;;;;;;5072329;28;20049;-67
2021/12/05 17:50:19;;;;;;;16.48;10.18;;;;;;;;;;5081335;28;20054;-67
2021/12/05 17:52:48;;;;;;;14.10;10.13;;;;;;;;;;5078099;28;20059;-68
2021/12/05 17:55:23;;;;;;;14.68;10.52;;;;;;;;;;5071777;28;20122;-67
2021/12/05 17:57:59;;;;;;;;;;;;;;;;;;5073164;28;20501;-68
2021/12/05 18:02:58;;;;;;;15.48;10.70;;;;;;;;;;5073602;28;20052;-68
2021/12/05 18:05:30;;;;;;;15.27;11.15;;;;;;;;;;5081455;28;20060;-67
2021/12/05 18:07:57;;;;;;;17.27;11.38;;;;;;;;;;5086523;28;20049;-67
2021/12/05 18:10:26;;;;;;;17.83;11.40;;;;;;;;;;5071066;28;20128;-67
2021/12/05 18:12:57;;;;;;;15.60;11.15;;;;;;;;;;5075660;28;20056;-66
2021/12/05 18:15:49;;;;;;;16.38;10.85;;;;;;;;;;5073292;28;20523;-67
2021/12/05 18:18:16;;;;;;;17.25;11.75;;;;;;;;;;5077090;28;20118;-67
2021/12/05 18:20:49;;;;;;;16.17;11.93;;;;;;;;;;5086013;28;20144;-67
2021/12/05 18:23:15;;;;;;;17.65;12.07;;;;;;;;;;5076047;28;20049;-67
2021/12/05 18:25:42;;;;;;;20.80;13.07;;;;;;;;;;5090696;28;20136;-67
2021/12/05 18:28:08;;;;;;;18.27;12.30;;;;;;;;;;5077435;28;20128;-68
2021/12/05 18:30:36;;;;;;;18.27;12.05;;;;;;;;;;5083690;28;20045;-68
2021/12/05 18:33:04;;;;;;;18.30;12.88;;;;;;;;;;5079739;28;20049;-67
2021/12/05 18:35:32;;;;;;;19.10;12.40;;;;;;;;;;5074701;28;20144;-66
2021/12/05 18:38:04;;;;;;;19.23;12.45;;;;;;;;;;5078109;28;20052;-67
2021/12/05 18:40:31;;;;;;;18.63;13.27;;;;;;;;;;5075841;28;20048;-67
2021/12/05 18:42:58;;;;;;;20.73;13.73;;;;;;;;;;5066710;28;20526;-67
2021/12/05 18:45:29;;;;;;;19.33;12.82;;;;;;;;;;5074733;28;20116;-67
2021/12/05 18:47:56;;;;;;;18.63;12.48;;;;;;;;;;5073091;28;20088;-67
2021/12/05 18:50:28;;;;;;;20.27;13.30;;;;;;;;;;5077305;28;20103;-67
2021/12/05 18:52:55;;;;;;;15.80;12.27;;;;;;;;;;5080636;28;20084;-67
2021/12/05 18:55:22;;;;;;;23.33;12.50;;;;;;;;;;5073491;28;20049;-67
2021/12/05 18:57:49;;;;;;;23.95;13.30;;;;;;;;;;5083197;28;20088;-68
2021/12/05 19:00:27;;;;;;;19.05;12.63;;;;;;;;;;5074807;28;20052;-67
2021/12/05 19:05:51;;;;;;;19.30;13.98;;;;;;;;;;5075089;28;20045;-67
2021/12/05 19:08:33;;;;;;;25.48;15.45;;;;;;;;;;5084499;28;20049;-67
2021/12/05 19:13:46;;;;;;;26.00;16.25;;;;;;;;;;5075875;28;20621;-66
2021/12/05 19:16:12;;;;;;;20.00;14.68;;;;;;;;;;5080503;28;20075;-67
2021/12/05 19:18:39;;;;;;;21.35;15.25;;;;;;;;;;5089688;28;20128;-67
2021/12/05 19:21:06;;;;;;;23.45;15.13;;;;;;;;;;5079931;28;20493;-67
2021/12/05 19:23:34;;;;;;;23.05;15.00;;;;;;;;;;5074341;28;20514;-68
2021/12/05 19:26:01;;;;;;;25.30;16.63;;;;;;;;;;5078850;28;20056;-65
2021/12/05 19:28:27;;;;;;;22.88;15.75;;;;;;;;;;5074792;28;20481;-68
2021/12/05 19:30:55;;;;;;;22.45;16.13;;;;;;;;;;5086741;28;20079;-68
2021/12/05 19:33:24;;;;;;;23.95;16.33;;;;;;;;;;5082843;28;20057;-67